Aérodrome :
LOGIN :

S'inscrire | Disclaimer

   EN    FR    IT 

 










Légende :    VFR   VFR Marginal   IFR   IFR Intensif   IFR Très Intensif
Visi : 
Plafond : 
>= 8 km
>= 3000ft
5 à 8 km
1000 à 3000 ft
1500m à 5 km
500 à 1000 ft
800 à 1500m
200 à 500 ft
< 800m
< 200 ft
Symboles :   Orages  Brouillard  Fortes neiges  Fortes précipitations  Vent > 20 kt
SIGMETs :   Divers  Orages  Givrage  Turbulence  Onde Orograph.  Cendres Volcan.







- Altitude de l'aérodrome : 200 ft


EBBL - Klein Brogel AB

DERNIER METAR :
  • 171355Z 26014KT 9999 FEW060 28/12 Q1015 BLU BLU

METARs EXPIRÉS :
  • 171325Z 25009KT 9999 SCT060 27/12 Q1015 BLU BLU
  • 171306Z 25010KT 9999 FEW060 28/13 Q1015 BLU BLU

TAF TAF EBBL
Valide du 17 à 13h jusqu'au 17 à 22h UTC


171141Z 1713/1722 27010KT 9999 FEW060
TEMPO 1713/1715 5000 -SHRA SCT040TCU
PROB30
TEMPO 1713/1715 3000 -TSRA BKN025CB
Pas de NOTAMs connus pour ce terrain.



MET'MAP, la Météo Aéronautique d'un coup d'oeil ! - Copyright ORBIFLY Décembre 2007 - Disclaimer

ORBIFLY MET'MAP TEAM :

Programmation & Développement : Alexandra Zaïnal
Conception & Développement : Baudouin d'Aumeries
Co-Programmation & Développement : Marc-Olivier Méhu
Soutien technique & logistique : Manuel Goepfert

Contact : metmap@orbifly.com




SOURCES & CREDITS :

   NOAA